10 Max
7 km/h
5 Mini

LFMY 161030Z AUTO VRB03KT 8000 -RA FEW033/// SCT040/// BKN064/// ///TCU 17/15 Q1018 TEMPO SHRA BECMG BKN050 BKN080

TAF LFMY 160800Z 1609/1709 VRB02KT 9999 BKN050 BKN080 TEMPO 1609/1611 5000 RA BR BECMG 1613/1615 13007KT PROB30 TEMPO 1611/1616 5000 SHRA